Time;durP1;ratioP1;P1;durP2;ratioP2;P2;SDS_P1;SDS_P2;PMS_P1;PMS_P2;Temp;Humidity;BMP_temperature;BMP_pressure;BME280_temperature;BME280_humidity;BME280_pressure;Samples;Min_cycle;Max_cycle;Signal;HPM_P1;HPM_P2
2021/08/02 00:01:31;;;;;;;1999.90;999.90;;;19.00;99.90;;;;;;4884658;29;20920;-78
2021/08/02 00:04:02;;;;;;;1999.90;999.90;;;19.00;99.90;;;;;;4884492;29;20442;-77
2021/08/02 00:06:53;;;;;;;1999.90;999.90;;;19.00;99.90;;;;;;4884413;29;20496;-78
2021/08/02 00:09:35;;;;;;;1999.90;999.90;;;19.00;99.90;;;;;;4884311;29;20411;-78
2021/08/02 00:12:10;;;;;;;1999.90;999.90;;;19.00;99.90;;;;;;4883471;29;20490;-78
2021/08/02 00:14:39;;;;;;;1999.90;999.90;;;18.90;99.90;;;;;;4884104;29;20395;-78
2021/08/02 00:17:05;;;;;;;1999.90;999.90;;;18.90;99.90;;;;;;4884327;29;20434;-79
2021/08/02 00:19:31;;;;;;;1999.90;999.90;;;18.90;99.90;;;;;;4884329;29;20986;-79
2021/08/02 00:22:02;;;;;;;1999.90;999.90;;;18.90;99.90;;;;;;4884985;29;20175;-79
2021/08/02 00:24:28;;;;;;;1999.90;999.90;;;18.90;99.90;;;;;;4884710;29;20384;-79
2021/08/02 00:26:56;;;;;;;1999.90;999.90;;;18.80;99.90;;;;;;4884113;29;20426;-78
2021/08/02 00:29:23;;;;;;;1999.90;999.90;;;18.80;99.90;;;;;;4884597;29;20962;-79
2021/08/02 00:31:49;;;;;;;1999.90;999.90;;;18.80;99.90;;;;;;4882718;29;20431;-79
2021/08/02 00:34:15;;;;;;;1999.90;999.90;;;18.80;99.90;;;;;;4882939;29;20423;-79
2021/08/02 00:36:47;;;;;;;1999.90;999.90;;;18.80;99.90;;;;;;4884260;29;20931;-79
2021/08/02 00:39:21;;;;;;;1999.90;999.90;;;18.80;99.90;;;;;;4884407;29;20522;-79
2021/08/02 00:42:05;;;;;;;1999.90;999.90;;;18.80;99.90;;;;;;4884052;29;20399;-77
2021/08/02 00:45:02;;;;;;;1999.90;999.90;;;18.80;99.90;;;;;;4884086;29;20411;-79
2021/08/02 00:47:38;;;;;;;1999.90;999.90;;;18.80;99.90;;;;;;4882595;29;20920;-78
2021/08/02 00:50:19;;;;;;;1999.90;999.90;;;18.70;99.90;;;;;;4883817;29;20395;-79
2021/08/02 00:52:53;;;;;;;1999.90;999.90;;;18.70;99.90;;;;;;4884330;29;20395;-78
2021/08/02 00:55:20;;;;;;;1999.90;999.90;;;18.70;99.90;;;;;;4884328;29;20387;-79
2021/08/02 00:57:48;;;;;;;1999.90;999.90;;;18.70;99.90;;;;;;4883693;29;20439;-79
2021/08/02 01:00:16;;;;;;;1999.90;999.90;;;18.70;99.90;;;;;;4884218;29;20447;-78
2021/08/02 01:02:47;;;;;;;1999.90;999.90;;;18.70;99.90;;;;;;4884098;29;20503;-79
2021/08/02 01:05:14;;;;;;;1999.90;999.90;;;18.70;99.90;;;;;;4884207;29;20407;-78
2021/08/02 01:07:51;;;;;;;1999.90;999.90;;;18.80;99.90;;;;;;4883722;29;20435;-79
2021/08/02 01:10:18;;;;;;;1999.90;999.90;;;18.70;99.90;;;;;;4882406;29;20407;-79
2021/08/02 01:12:48;;;;;;;1999.90;999.90;;;18.70;99.90;;;;;;4883681;29;20422;-78
2021/08/02 01:15:18;;;;;;;1999.90;999.90;;;18.60;99.90;;;;;;4883664;29;20498;-79
2021/08/02 01:17:46;;;;;;;1999.90;999.90;;;18.70;99.90;;;;;;4883492;29;20440;-78
2021/08/02 01:20:12;;;;;;;1999.90;999.90;;;18.60;99.90;;;;;;4883113;29;20462;-78
2021/08/02 01:22:39;;;;;;;1999.90;999.90;;;18.50;99.90;;;;;;4884129;29;20419;-79
2021/08/02 01:25:40;;;;;;;1999.90;999.90;;;18.50;99.90;;;;;;4883000;29;20892;-79
2021/08/02 01:28:15;;;;;;;1999.90;999.90;;;18.60;99.90;;;;;;4862750;29;20426;-79
2021/08/02 01:30:53;;;;;;;1999.90;999.90;;;18.60;99.90;;;;;;4880243;29;20961;-79
2021/08/02 01:33:31;;;;;;;1999.90;999.90;;;18.60;99.90;;;;;;4897593;29;20953;-79
2021/08/02 01:36:02;;;;;;;1999.90;999.90;;;18.60;99.90;;;;;;4883676;29;20769;-78
2021/08/02 01:38:31;;;;;;;1999.90;999.90;;;18.60;99.90;;;;;;4883369;29;20428;-79
2021/08/02 01:40:57;;;;;;;1999.90;999.90;;;18.50;99.90;;;;;;4883384;29;20424;-78
2021/08/02 01:43:23;;;;;;;1999.90;999.90;;;18.60;99.90;;;;;;4883431;29;20933;-78
2021/08/02 01:46:07;;;;;;;1999.90;999.90;;;18.60;99.90;;;;;;4883020;29;20835;-79
2021/08/02 01:49:01;;;;;;;1999.90;999.90;;;18.60;99.90;;;;;;4883752;29;20396;-79
2021/08/02 01:51:37;;;;;;;1999.90;999.90;;;18.60;99.90;;;;;;4883439;29;20407;-78
2021/08/02 01:54:25;;;;;;;1999.90;999.90;;;18.60;99.90;;;;;;4883553;29;20424;-79
2021/08/02 01:57:11;;;;;;;1999.90;999.90;;;18.60;99.90;;;;;;4883019;29;20525;-78
2021/08/02 01:59:44;;;;;;;1999.90;999.90;;;18.60;99.90;;;;;;4883222;29;20463;-79
2021/08/02 02:02:14;;;;;;;1999.90;999.90;;;18.60;99.90;;;;;;4883187;29;20835;-79
2021/08/02 02:05:03;;;;;;;1999.90;999.90;;;18.50;99.90;;;;;;4882818;29;20463;-77
2021/08/02 02:07:33;;;;;;;1999.90;999.90;;;18.60;99.90;;;;;;4883146;29;20836;-79
2021/08/02 02:10:00;;;;;;;1999.90;999.90;;;18.60;99.90;;;;;;4883764;29;20411;-79
2021/08/02 02:12:25;;;;;;;1999.90;999.90;;;18.50;99.90;;;;;;4882509;29;20415;-78
2021/08/02 02:14:55;;;;;;;1999.90;999.90;;;18.50;99.90;;;;;;4883140;29;20415;-79
2021/08/02 02:17:23;;;;;;;1999.90;999.90;;;18.50;99.90;;;;;;4882740;29;20230;-79
2021/08/02 02:19:51;;;;;;;1999.90;999.90;;;18.50;99.90;;;;;;4882645;29;20465;-79
2021/08/02 02:22:20;;;;;;;1999.90;999.90;;;18.50;99.90;;;;;;4882673;29;20448;-77
2021/08/02 02:24:47;;;;;;;1999.90;999.90;;;18.50;99.90;;;;;;4882948;29;20411;-79
2021/08/02 02:27:13;;;;;;;1999.90;999.90;;;18.40;99.90;;;;;;4882413;29;20423;-78
2021/08/02 02:29:40;;;;;;;1999.90;999.90;;;18.40;99.90;;;;;;4882834;29;20439;-78
2021/08/02 02:32:07;;;;;;;1999.90;999.90;;;18.40;99.90;;;;;;4882883;29;20419;-77
2021/08/02 02:34:36;;;;;;;1999.90;999.90;;;18.50;99.90;;;;;;4881339;29;20431;-79
2021/08/02 02:37:04;;;;;;;1999.90;999.90;;;18.50;99.90;;;;;;4882296;29;20799;-79
2021/08/02 02:39:30;;;;;;;1999.90;999.90;;;18.40;99.90;;;;;;4882100;29;20447;-78
2021/08/02 02:41:56;;;;;;;1999.90;999.90;;;18.40;99.90;;;;;;4882088;29;20412;-79
2021/08/02 02:44:23;;;;;;;1999.90;999.90;;;18.40;99.90;;;;;;4882034;29;20419;-79
2021/08/02 02:46:50;;;;;;;1999.90;999.90;;;18.40;99.90;;;;;;4882024;29;20510;-78
2021/08/02 02:49:18;;;;;;;1999.90;999.90;;;18.40;99.90;;;;;;4882068;29;20416;-77
2021/08/02 02:51:45;;;;;;;1999.90;999.90;;;18.30;99.90;;;;;;4882497;29;20419;-79
2021/08/02 02:54:11;;;;;;;1999.90;999.90;;;18.30;99.90;;;;;;4882599;29;20443;-78
2021/08/02 02:56:37;;;;;;;1999.90;999.90;;;18.40;99.90;;;;;;4881468;29;20489;-78
2021/08/02 02:59:03;;;;;;;1999.90;999.90;;;18.30;99.90;;;;;;4881429;29;20457;-77
2021/08/02 03:01:36;;;;;;;1999.90;999.90;;;18.30;99.90;;;;;;4881856;29;20415;-77
2021/08/02 03:04:03;;;;;;;1999.90;999.90;;;18.40;99.90;;;;;;4881915;29;20465;-76
2021/08/02 03:06:29;;;;;;;1999.90;999.90;;;18.40;99.90;;;;;;4882359;29;20439;-77
2021/08/02 03:08:56;;;;;;;1999.90;999.90;;;18.40;99.90;;;;;;4881546;29;20830;-79
2021/08/02 03:11:22;;;;;;;1999.90;999.90;;;18.40;99.90;;;;;;4883245;29;20411;-79
2021/08/02 03:13:51;;;;;;;1999.90;999.90;;;18.30;99.90;;;;;;4885603;29;20426;-78
2021/08/02 03:16:18;;;;;;;1999.90;999.90;;;18.30;99.90;;;;;;4885339;29;20520;-77
2021/08/02 03:18:44;;;;;;;1999.90;999.90;;;18.30;99.90;;;;;;4885224;29;20411;-77
2021/08/02 03:21:12;;;;;;;1999.90;999.90;;;18.20;99.90;;;;;;4885094;29;20433;-78
2021/08/02 03:23:47;;;;;;;1999.90;999.90;;;18.20;99.90;;;;;;4899886;29;20250;-78
2021/08/02 03:26:18;;;;;;;1999.90;999.90;;;18.20;99.90;;;;;;4885123;29;20502;-78
2021/08/02 03:28:53;;;;;;;1999.90;999.90;;;18.20;99.90;;;;;;4885651;29;20737;-78
2021/08/02 03:31:31;;;;;;;1999.90;999.90;;;18.20;99.90;;;;;;4951806;23;20498;-81
2021/08/02 03:34:01;;;;;;;1999.90;999.90;;;18.20;99.90;;;;;;4885644;29;20388;-81
2021/08/02 03:36:27;;;;;;;1999.90;999.90;;;18.20;99.90;;;;;;4885800;29;20449;-81
2021/08/02 03:38:55;;;;;;;1999.90;999.90;;;18.30;99.90;;;;;;4884505;29;20507;-81
2021/08/02 03:41:24;;;;;;;1999.90;999.90;;;18.20;99.90;;;;;;4899942;29;20423;-81
2021/08/02 03:43:50;;;;;;;1999.90;999.90;;;18.20;99.90;;;;;;4883784;29;20828;-81
2021/08/02 03:46:18;;;;;;;1999.90;999.90;;;18.20;99.90;;;;;;4885232;29;20483;-81
2021/08/02 03:48:45;;;;;;;1999.90;999.90;;;18.20;99.90;;;;;;4900180;29;20462;-81
2021/08/02 03:51:11;;;;;;;1999.90;999.90;;;18.20;99.90;;;;;;4885181;29;20498;-81
2021/08/02 03:53:44;;;;;;;1999.90;999.90;;;18.20;99.90;;;;;;4884995;29;20511;-81
2021/08/02 03:56:11;;;;;;;1999.90;999.90;;;18.20;99.90;;;;;;4899253;29;20211;-81
2021/08/02 03:58:37;;;;;;;1999.90;999.90;;;18.20;99.90;;;;;;4883599;29;20509;-81
2021/08/02 04:01:03;;;;;;;1999.90;999.90;;;18.20;99.90;;;;;;4885259;29;20498;-81
2021/08/02 04:03:29;;;;;;;1999.90;999.90;;;18.20;99.90;;;;;;4884222;29;20427;-81
2021/08/02 04:05:57;;;;;;;1999.90;999.90;;;18.20;99.90;;;;;;4885028;29;20431;-81
2021/08/02 04:08:23;;;;;;;1999.90;999.90;;;18.20;99.90;;;;;;4883933;29;20171;-81
2021/08/02 04:10:48;;;;;;;1999.90;999.90;;;18.20;99.90;;;;;;4885095;29;20506;-81
2021/08/02 04:13:17;;;;;;;1999.90;999.90;;;18.20;99.90;;;;;;4899633;29;20416;-81
2021/08/02 04:15:43;;;;;;;1999.90;999.90;;;18.20;99.90;;;;;;4884913;29;20274;-81
2021/08/02 04:18:09;;;;;;;1999.90;999.90;;;18.20;99.90;;;;;;4884398;29;20467;-81
2021/08/02 04:20:38;;;;;;;1999.90;999.90;;;18.20;99.90;;;;;;4884841;29;20967;-81
2021/08/02 04:23:03;;;;;;;1999.90;999.90;;;18.20;99.90;;;;;;4898120;29;20171;-81
2021/08/02 04:25:29;;;;;;;1999.90;999.90;;;18.20;99.90;;;;;;4884647;29;20819;-81
2021/08/02 04:27:55;;;;;;;1999.90;999.90;;;18.10;99.90;;;;;;4884812;29;20203;-81
2021/08/02 04:30:21;;;;;;;1999.90;999.90;;;18.20;99.90;;;;;;4883345;29;20222;-81
2021/08/02 04:32:47;;;;;;;1999.90;999.90;;;18.20;99.90;;;;;;4885391;29;20187;-81
2021/08/02 04:35:13;;;;;;;1999.90;999.90;;;18.20;99.90;;;;;;4884745;29;20763;-81
2021/08/02 04:37:39;;;;;;;1999.90;999.90;;;18.20;99.90;;;;;;4883388;29;20447;-81
2021/08/02 04:40:09;;;;;;;1999.90;999.90;;;18.10;99.90;;;;;;4884395;29;20208;-81
2021/08/02 04:42:36;;;;;;;1999.90;999.90;;;18.10;99.90;;;;;;4883588;29;20518;-81
2021/08/02 04:45:11;;;;;;;1999.90;999.90;;;18.20;99.90;;;;;;4884737;29;20444;-81
2021/08/02 04:47:37;;;;;;;1999.90;999.90;;;18.20;99.90;;;;;;4899121;29;20435;-81
2021/08/02 04:50:02;;;;;;;1999.90;999.90;;;18.10;99.90;;;;;;4885025;29;20430;-81
2021/08/02 04:52:28;;;;;;;1999.90;999.90;;;18.20;99.90;;;;;;4884555;29;20565;-81
2021/08/02 04:55:03;;;;;;;1999.90;999.90;;;18.20;99.90;;;;;;4884419;29;20178;-82
2021/08/02 04:57:31;;;;;;;1999.90;999.90;;;18.20;99.90;;;;;;4884072;29;20225;-81
2021/08/02 04:59:58;;;;;;;1999.90;999.90;;;18.20;99.90;;;;;;4882943;29;20454;-81
2021/08/02 05:02:24;;;;;;;1999.90;999.90;;;18.20;99.90;;;;;;4883785;29;20427;-81
2021/08/02 05:04:50;;;;;;;1999.90;999.90;;;18.20;99.90;;;;;;4884521;29;20438;-81
2021/08/02 05:07:15;;;;;;;1999.90;999.90;;;18.20;99.90;;;;;;4883941;29;20265;-81
2021/08/02 05:09:41;;;;;;;1999.90;999.90;;;18.20;99.90;;;;;;4884404;29;20234;-81
2021/08/02 05:12:07;;;;;;;1999.90;999.90;;;18.20;99.90;;;;;;4897991;29;20178;-81
2021/08/02 05:14:33;;;;;;;1999.90;999.90;;;18.30;99.90;;;;;;4898216;29;20182;-81
2021/08/02 05:17:01;;;;;;;1999.90;999.90;;;18.30;99.90;;;;;;4882789;29;20574;-81
2021/08/02 05:19:30;;;;;;;1999.90;999.90;;;18.30;99.90;;;;;;4883520;29;20203;-81
2021/08/02 05:21:56;;;;;;;1999.90;999.90;;;18.30;99.90;;;;;;4884074;29;20418;-81
2021/08/02 05:24:21;;;;;;;1999.90;999.90;;;18.40;99.90;;;;;;4884189;29;20498;-81
2021/08/02 05:26:47;;;;;;;1999.90;999.90;;;18.40;99.90;;;;;;4883748;29;20273;-81
2021/08/02 05:29:13;;;;;;;1999.90;999.90;;;18.40;99.90;;;;;;4881484;29;20175;-80
2021/08/02 05:31:38;;;;;;;1999.90;999.90;;;18.40;99.90;;;;;;4895498;29;20178;-80
2021/08/02 05:34:04;;;;;;;1999.90;999.90;;;18.40;99.90;;;;;;4880600;29;20415;-79
2021/08/02 05:36:30;;;;;;;1999.90;999.90;;;18.40;99.90;;;;;;4881524;29;20190;-81
2021/08/02 05:38:55;;;;;;;1999.90;999.90;;;18.40;99.90;;;;;;4897224;29;20203;-81
2021/08/02 05:41:21;;;;;;;1999.90;999.90;;;18.50;99.90;;;;;;4883320;29;20166;-81
2021/08/02 05:43:47;;;;;;;1999.90;999.90;;;18.50;99.90;;;;;;4883584;29;20167;-81
2021/08/02 05:46:12;;;;;;;1999.90;999.90;;;18.50;99.90;;;;;;4883697;29;20187;-81
2021/08/02 05:48:38;;;;;;;1999.90;999.90;;;18.50;99.90;;;;;;4882330;29;20207;-82
2021/08/02 05:51:07;;;;;;;1999.90;999.90;;;18.50;99.90;;;;;;4883768;29;20186;-81
2021/08/02 05:53:32;;;;;;;1999.90;999.90;;;18.50;99.90;;;;;;4883743;29;20435;-81
2021/08/02 05:55:58;;;;;;;1999.90;999.90;;;18.50;99.90;;;;;;4883737;29;20482;-81
2021/08/02 05:58:24;;;;;;;1999.90;999.90;;;18.40;99.90;;;;;;4883496;29;20175;-81
2021/08/02 06:00:49;;;;;;;1999.90;999.90;;;18.40;99.90;;;;;;4883593;29;20308;-82
2021/08/02 06:03:15;;;;;;;1999.90;999.90;;;18.30;99.90;;;;;;4883215;29;20178;-81
2021/08/02 06:05:43;;;;;;;1999.90;999.90;;;18.30;99.90;;;;;;4883162;29;20175;-81
2021/08/02 06:08:09;;;;;;;1999.90;999.90;;;18.40;99.90;;;;;;4881962;29;20238;-81
2021/08/02 06:10:35;;;;;;;1999.90;999.90;;;18.40;99.90;;;;;;4883098;29;20828;-82
2021/08/02 06:13:00;;;;;;;1999.90;999.90;;;18.50;99.90;;;;;;4883768;29;20186;-82
2021/08/02 06:15:26;;;;;;;1999.90;999.90;;;18.40;99.90;;;;;;4883162;29;20179;-82
2021/08/02 06:17:54;;;;;;;1999.90;999.90;;;18.40;99.90;;;;;;4883021;29;20194;-83
2021/08/02 06:20:20;;;;;;;1999.90;999.90;;;18.40;99.90;;;;;;4883251;29;20250;-83
2021/08/02 06:22:46;;;;;;;1999.90;999.90;;;18.30;99.90;;;;;;4897480;29;20450;-82
2021/08/02 06:25:12;;;;;;;1999.90;999.90;;;18.30;99.90;;;;;;4882339;29;20178;-83
2021/08/02 06:27:37;;;;;;;1999.90;999.90;;;18.20;99.90;;;;;;4898277;29;20254;-83
2021/08/02 06:30:07;;;;;;;1999.90;999.90;;;18.20;99.90;;;;;;4883940;29;20186;-83
2021/08/02 06:32:33;;;;;;;1999.90;999.90;;;18.30;99.90;;;;;;4883071;29;20423;-82
2021/08/02 06:34:58;;;;;;;1999.90;999.90;;;18.30;99.90;;;;;;4882654;29;20411;-82
2021/08/02 06:37:26;;;;;;;1999.90;999.90;;;18.20;99.90;;;;;;4881219;29;20195;-82
2021/08/02 06:39:52;;;;;;;1999.90;999.90;;;18.20;99.90;;;;;;4882101;29;20197;-82
2021/08/02 06:42:19;;;;;;;1999.90;999.90;;;18.30;99.90;;;;;;4883317;29;20510;-83
2021/08/02 06:44:45;;;;;;;1999.90;999.90;;;18.30;99.90;;;;;;4896922;29;20490;-82
2021/08/02 06:47:11;;;;;;;1999.90;999.90;;;18.30;99.90;;;;;;4881076;29;20443;-82
2021/08/02 06:49:37;;;;;;;1999.90;999.90;;;18.30;99.90;;;;;;4881739;29;20422;-82
2021/08/02 06:52:03;;;;;;;1999.90;999.90;;;18.30;99.90;;;;;;4882587;29;20419;-82
2021/08/02 06:54:29;;;;;;;1999.90;999.90;;;18.30;99.90;;;;;;4882868;29;20439;-83
2021/08/02 06:56:58;;;;;;;1999.90;999.90;;;18.30;99.90;;;;;;4883035;29;20448;-83
2021/08/02 06:59:23;;;;;;;1999.90;999.90;;;18.40;99.90;;;;;;4883899;29;20526;-83
2021/08/02 07:01:49;;;;;;;1999.90;999.90;;;18.40;99.90;;;;;;4882852;29;20439;-83
2021/08/02 07:04:18;;;;;;;1999.90;999.90;;;18.40;99.90;;;;;;4882680;29;20261;-83
2021/08/02 07:11:09;;;;;;;;;;;;;;;;;;;;;
2021/08/02 07:17:24;;;;;;;1999.90;999.90;;;18.40;99.90;;;;;;4900420;29;20442;-83
2021/08/02 07:31:30;;;;;;;1999.90;999.90;;;18.40;99.90;;;;;;4881867;29;20400;-82
2021/08/02 07:34:14;;;;;;;1999.90;999.90;;;18.40;99.90;;;;;;4885908;29;20442;-83
2021/08/02 07:36:54;;;;;;;1999.90;999.90;;;18.30;99.90;;;;;;4899146;29;20426;-83
2021/08/02 07:39:34;;;;;;;1999.90;999.90;;;18.40;99.90;;;;;;4898620;29;20466;-83
2021/08/02 07:42:11;;;;;;;1999.90;999.90;;;18.40;99.90;;;;;;4900895;29;20391;-83
2021/08/02 07:45:27;;;;;;;1999.90;999.90;;;18.40;99.90;;;;;;4881931;29;20486;-83
2021/08/02 07:48:33;;;;;;;1999.90;999.90;;;18.40;99.90;;;;;;4889797;29;20439;-83
2021/08/02 07:51:36;;;;;;;1999.90;999.90;;;18.40;99.90;;;;;;4883701;29;20403;-83
2021/08/02 07:58:03;;;;;;;;;;;;;;;;;;;;;
2021/08/02 08:04:02;;;;;;;1999.90;999.90;;;18.40;99.90;;;;;;4899681;29;20407;-83
2021/08/02 08:06:30;;;;;;;1999.90;999.90;;;18.40;99.90;;;;;;4885057;29;20479;-83
2021/08/02 08:08:56;;;;;;;1999.90;999.90;;;18.30;99.90;;;;;;4884497;29;20809;-83
2021/08/02 08:11:34;;;;;;;1999.90;999.90;;;18.30;99.90;;;;;;4884789;29;20407;-83
2021/08/02 08:14:00;;;;;;;1999.90;999.90;;;18.20;99.90;;;;;;4884418;29;20203;-83
2021/08/02 08:16:26;;;;;;;1999.90;999.90;;;18.20;99.90;;;;;;4884664;29;20427;-83
2021/08/02 08:18:51;;;;;;;1999.90;999.90;;;18.20;99.90;;;;;;4884342;29;20411;-83
2021/08/02 08:21:17;;;;;;;1999.90;999.90;;;18.10;99.90;;;;;;4883794;29;20712;-83
2021/08/02 08:23:43;;;;;;;1999.90;999.90;;;18.10;99.90;;;;;;4884277;29;20163;-83
2021/08/02 08:26:08;;;;;;;1999.90;999.90;;;18.10;99.90;;;;;;4884929;29;20194;-82
2021/08/02 08:28:34;;;;;;;1999.90;999.90;;;18.00;99.90;;;;;;4880858;29;20274;-82
2021/08/02 08:31:00;;;;;;;1999.90;999.90;;;18.00;99.90;;;;;;4880970;29;20591;-80
2021/08/02 08:33:28;;;;;;;1999.90;999.90;;;18.00;99.90;;;;;;4882134;29;20183;-80
2021/08/02 08:35:55;;;;;;;1999.90;999.90;;;18.00;99.90;;;;;;4882325;29;20194;-80
2021/08/02 08:38:22;;;;;;;1999.90;999.90;;;17.90;99.90;;;;;;4881768;29;20410;-79
2021/08/02 08:40:48;;;;;;;1999.90;999.90;;;17.80;99.90;;;;;;4881690;29;20499;-80
2021/08/02 08:43:17;;;;;;;1999.90;999.90;;;17.80;99.90;;;;;;4882061;29;20749;-81
2021/08/02 08:45:44;;;;;;;1999.90;999.90;;;17.70;99.90;;;;;;4882947;29;20418;-83
2021/08/02 08:48:09;;;;;;;1999.90;999.90;;;17.80;99.90;;;;;;4883593;29;20399;-83
2021/08/02 08:50:38;;;;;;;1999.90;999.90;;;17.80;99.90;;;;;;4882868;29;20418;-84
2021/08/02 08:53:04;;;;;;;1999.90;999.90;;;17.90;99.90;;;;;;4882364;29;20204;-83
2021/08/02 08:55:30;;;;;;;1999.90;999.90;;;18.00;99.90;;;;;;4883469;29;20407;-82
2021/08/02 08:57:59;;;;;;;1999.90;999.90;;;18.10;99.90;;;;;;4883122;29;20434;-83
2021/08/02 09:00:27;;;;;;;1999.90;999.90;;;18.10;99.90;;;;;;4881892;29;20198;-83
2021/08/02 09:02:55;;;;;;;1999.90;999.90;;;18.10;99.90;;;;;;4881989;29;20787;-83
2021/08/02 09:05:30;;;;;;;1999.90;999.90;;;18.10;99.90;;;;;;4882153;29;20593;-83
2021/08/02 09:07:56;;;;;;;1999.90;999.90;;;18.10;99.90;;;;;;4883070;29;20478;-82
2021/08/02 09:10:23;;;;;;;1999.90;999.90;;;18.10;99.90;;;;;;4896406;29;20415;-82
2021/08/02 09:12:52;;;;;;;1999.90;999.90;;;18.20;99.90;;;;;;4882012;29;20211;-82
2021/08/02 09:15:30;;;;;;;1999.90;999.90;;;18.20;99.90;;;;;;4882068;29;20420;-82
2021/08/02 09:17:56;;;;;;;1999.90;999.90;;;18.30;99.90;;;;;;4881419;29;20466;-83
2021/08/02 09:20:23;;;;;;;1999.90;999.90;;;18.30;99.90;;;;;;4882088;29;20542;-82
2021/08/02 09:22:51;;;;;;;1999.90;999.90;;;18.50;99.90;;;;;;4882953;29;20635;-82
2021/08/02 09:25:20;;;;;;;1999.90;999.90;;;18.60;99.90;;;;;;4882534;29;20420;-82
2021/08/02 09:27:47;;;;;;;1999.90;999.90;;;18.70;99.90;;;;;;4883425;29;20463;-82
2021/08/02 09:30:17;;;;;;;1999.90;999.90;;;18.80;99.90;;;;;;4950830;23;20494;-78
2021/08/02 09:32:54;;;;;;;1999.90;999.90;;;19.00;99.90;;;;;;4881995;29;20448;-78
2021/08/02 09:35:29;;;;;;;1999.90;999.90;;;19.00;99.90;;;;;;4880471;29;20450;-78
2021/08/02 09:38:00;;;;;;;1999.90;999.90;;;19.00;99.90;;;;;;4892623;29;20446;-78
2021/08/02 09:40:27;;;;;;;1999.90;999.90;;;18.90;99.90;;;;;;4863483;29;20502;-78
2021/08/02 09:42:54;;;;;;;1999.90;999.90;;;19.00;99.90;;;;;;4861741;29;20503;-78
2021/08/02 09:45:20;;;;;;;1999.90;999.90;;;19.20;99.90;;;;;;4863249;29;20400;-78
2021/08/02 09:47:50;;;;;;;1999.90;999.90;;;19.30;99.90;;;;;;4863239;29;20431;-78
2021/08/02 09:50:30;;;;;;;1999.90;999.90;;;19.40;99.90;;;;;;4893141;29;20208;-78
2021/08/02 09:52:57;;;;;;;1999.90;999.90;;;19.50;99.90;;;;;;4863081;29;20437;-78
2021/08/02 09:55:23;;;;;;;1999.90;999.90;;;19.70;99.90;;;;;;4863742;29;20415;-78
2021/08/02 09:57:52;;;;;;;1999.90;999.90;;;19.80;99.90;;;;;;4862794;29;20428;-78
2021/08/02 10:00:19;;;;;;;1999.90;999.90;;;19.80;99.90;;;;;;4862819;29;20436;-78
2021/08/02 10:02:50;;;;;;;1999.90;999.90;;;19.80;99.90;;;;;;4862702;29;20413;-78
2021/08/02 10:05:17;;;;;;;1999.90;999.90;;;19.80;99.90;;;;;;4863230;29;20764;-78
2021/08/02 10:07:44;;;;;;;1999.90;999.90;;;19.80;99.90;;;;;;4862885;29;20542;-78
2021/08/02 10:10:12;;;;;;;1999.90;999.90;;;19.80;99.90;;;;;;4862869;29;20435;-78
2021/08/02 10:12:43;;;;;;;1999.90;999.90;;;19.70;99.90;;;;;;4862627;29;20409;-78
2021/08/02 10:15:14;;;;;;;1999.90;999.90;;;19.80;99.90;;;;;;4862393;29;20405;-77
2021/08/02 10:17:46;;;;;;;1999.90;999.90;;;19.70;99.90;;;;;;4862108;29;20435;-77
2021/08/02 10:20:17;;;;;;;1999.90;999.90;;;19.80;99.90;;;;;;4862161;29;20435;-77
2021/08/02 10:22:44;;;;;;;1999.90;999.90;;;20.00;99.90;;;;;;4861806;29;20557;-77
2021/08/02 10:25:10;;;;;;;1999.90;999.90;;;20.30;99.90;;;;;;4862692;29;20409;-77
2021/08/02 10:27:36;;;;;;;1999.90;999.90;;;20.50;99.90;;;;;;4861064;29;20442;-77
2021/08/02 10:30:01;;;;;;;1999.90;999.90;;;20.60;99.90;;;;;;4862180;29;20435;-77
2021/08/02 10:32:28;;;;;;;1999.90;999.90;;;20.60;99.90;;;;;;4862053;29;20695;-77
2021/08/02 10:34:56;;;;;;;1999.90;999.90;;;20.70;99.90;;;;;;4892007;29;20418;-77
2021/08/02 10:37:37;;;;;;;1999.90;999.90;;;20.80;99.90;;;;;;4861717;29;20439;-77
2021/08/02 10:40:10;;;;;;;1999.90;999.90;;;20.90;99.90;;;;;;4861965;29;20463;-77
2021/08/02 10:42:46;;;;;;;1999.90;999.90;;;20.90;99.90;;;;;;4861886;29;20787;-77
2021/08/02 10:45:12;;;;;;;1999.90;999.90;;;20.70;99.90;;;;;;4862440;29;20433;-77
2021/08/02 10:47:39;;;;;;;1999.90;999.90;;;20.70;99.90;;;;;;4861917;29;20424;-77
2021/08/02 10:50:09;;;;;;;1999.90;999.90;;;20.60;99.90;;;;;;4861968;29;20179;-77
2021/08/02 10:52:35;;;;;;;1999.90;999.90;;;20.60;99.90;;;;;;4861595;29;20456;-77
2021/08/02 10:55:15;;;;;;;1999.90;999.90;;;20.60;99.90;;;;;;4861990;29;21030;-77
2021/08/02 10:57:41;;;;;;;1999.90;999.90;;;20.70;99.90;;;;;;4860444;29;21035;-77
2021/08/02 11:00:28;;;;;;;1999.90;999.90;;;20.80;99.90;;;;;;4861430;29;20441;-77
2021/08/02 11:02:55;;;;;;;1999.90;999.90;;;20.60;99.90;;;;;;4861625;29;20164;-78
2021/08/02 11:05:23;;;;;;;1999.90;999.90;;;20.60;99.90;;;;;;4861740;29;20411;-77
2021/08/02 11:07:49;;;;;;;1999.90;999.90;;;20.70;99.90;;;;;;4860675;29;20966;-77
2021/08/02 11:10:15;;;;;;;1999.90;999.90;;;20.60;99.90;;;;;;4862894;29;20419;-77
2021/08/02 11:12:43;;;;;;;1999.90;999.90;;;20.50;99.90;;;;;;4862355;29;20422;-77
2021/08/02 11:15:09;;;;;;;1999.90;999.90;;;20.50;99.90;;;;;;4861524;29;20450;-78
2021/08/02 11:17:35;;;;;;;1999.90;999.90;;;20.50;99.90;;;;;;4891630;29;20446;-78
2021/08/02 11:20:07;;;;;;;1999.90;999.90;;;20.30;99.90;;;;;;4861661;29;21000;-78
2021/08/02 11:22:37;;;;;;;1999.90;999.90;;;20.30;99.90;;;;;;4860709;29;20171;-78
2021/08/02 11:25:03;;;;;;;1999.90;999.90;;;20.40;99.90;;;;;;4861649;29;20766;-78
2021/08/02 11:27:29;;;;;;;1999.90;999.90;;;20.30;99.90;;;;;;4861790;29;20471;-78
2021/08/02 11:29:55;;;;;;;1999.90;999.90;;;20.50;99.90;;;;;;4861581;29;20525;-77
2021/08/02 11:32:22;;;;;;;1999.90;999.90;;;20.60;99.90;;;;;;4863074;29;20164;-77
2021/08/02 11:34:57;;;;;;;1999.90;999.90;;;20.80;99.90;;;;;;4864864;29;20493;-78
2021/08/02 11:37:27;;;;;;;1999.90;999.90;;;21.00;99.90;;;;;;4895060;29;20465;-77
2021/08/02 11:40:08;;;;;;;1999.90;999.90;;;20.90;99.90;;;;;;4864671;29;20854;-77
2021/08/02 11:42:36;;;;;;;1999.90;999.90;;;20.90;99.90;;;;;;4864759;29;20400;-77
2021/08/02 11:45:05;;;;;;;1999.90;999.90;;;20.80;99.90;;;;;;4865043;29;20414;-77
2021/08/02 11:47:35;;;;;;;1999.90;999.90;;;20.50;99.90;;;;;;4864711;29;20488;-77
2021/08/02 11:50:03;;;;;;;1999.90;999.90;;;20.30;99.90;;;;;;4865053;29;20466;-77
2021/08/02 11:52:29;;;;;;;1999.90;999.90;;;20.20;99.90;;;;;;4864969;29;20411;-77
2021/08/02 11:55:14;;;;;;;1999.90;999.90;;;20.20;99.90;;;;;;4864962;29;20467;-77
2021/08/02 11:57:41;;;;;;;1999.90;999.90;;;20.20;99.90;;;;;;4864465;29;20429;-77
2021/08/02 12:00:15;;;;;;;1999.90;999.90;;;20.30;99.90;;;;;;4865053;29;20516;-77
2021/08/02 12:02:42;;;;;;;1999.90;999.90;;;20.50;99.90;;;;;;4865173;29;20400;-77
2021/08/02 12:05:24;;;;;;;1999.90;999.90;;;20.70;99.90;;;;;;4863238;29;20503;-77
2021/08/02 12:07:51;;;;;;;1999.90;999.90;;;20.90;99.90;;;;;;4864207;29;20431;-77
2021/08/02 12:10:19;;;;;;;1999.90;999.90;;;21.10;99.90;;;;;;4864090;29;20417;-77
2021/08/02 12:12:56;;;;;;;1999.90;999.90;;;21.30;99.90;;;;;;4864407;29;20413;-77
2021/08/02 12:15:21;;;;;;;1999.90;999.90;;;21.50;98.70;;;;;;4864544;29;20752;-77
2021/08/02 12:17:49;;;;;;;1999.90;999.90;;;21.50;97.40;;;;;;4864400;29;20432;-77
2021/08/02 12:20:15;;;;;;;1999.90;999.90;;;21.60;97.80;;;;;;4864112;29;20695;-77
2021/08/02 12:22:41;;;;;;;1999.90;999.90;;;21.90;95.40;;;;;;4864266;29;20424;-77
2021/08/02 12:25:07;;;;;;;1999.90;999.90;;;21.80;95.10;;;;;;4864649;29;20420;-78
2021/08/02 12:27:34;;;;;;;1999.90;999.90;;;21.80;96.90;;;;;;4863999;29;20428;-78
2021/08/02 12:30:06;;;;;;;1999.90;999.90;;;22.10;97.60;;;;;;4862685;29;20454;-77
2021/08/02 12:32:44;;;;;;;1999.90;999.90;;;22.20;94.20;;;;;;4863903;29;20412;-77
2021/08/02 12:35:16;;;;;;;1999.90;999.90;;;22.10;90.90;;;;;;4864196;29;20408;-77
2021/08/02 12:37:44;;;;;;;1999.90;999.90;;;22.00;93.90;;;;;;4864139;29;20457;-77
2021/08/02 12:40:15;;;;;;;1999.90;999.90;;;22.20;95.10;;;;;;4864118;29;20456;-77